sensor_id;sensor_type;location;lat;lon;timestamp;temperature;humidity
45409;DHT22;31162;51.076;3.784;2022-08-23T00:01:58;21.20;99.90
45409;DHT22;31162;51.076;3.784;2022-08-23T00:04:34;21.10;99.90
45409;DHT22;31162;51.076;3.784;2022-08-23T00:07:04;21.00;99.90
45409;DHT22;31162;51.076;3.784;2022-08-23T00:09:30;21.00;99.90
45409;DHT22;31162;51.076;3.784;2022-08-23T00:12:18;21.10;99.90
45409;DHT22;31162;51.076;3.784;2022-08-23T00:14:46;21.10;99.90
45409;DHT22;31162;51.076;3.784;2022-08-23T00:17:13;21.20;99.90
45409;DHT22;31162;51.076;3.784;2022-08-23T00:19:39;21.20;99.90
45409;DHT22;31162;51.076;3.784;2022-08-23T00:22:09;21.10;99.90
45409;DHT22;31162;51.076;3.784;2022-08-23T00:24:35;21.00;99.90
45409;DHT22;31162;51.076;3.784;2022-08-23T00:27:11;20.90;99.90
45409;DHT22;31162;51.076;3.784;2022-08-23T00:29:41;20.90;99.90
45409;DHT22;31162;51.076;3.784;2022-08-23T00:32:10;20.90;99.90
45409;DHT22;31162;51.076;3.784;2022-08-23T00:34:37;20.90;99.90
45409;DHT22;31162;51.076;3.784;2022-08-23T00:37:05;21.00;99.90
45409;DHT22;31162;51.076;3.784;2022-08-23T00:39:31;21.00;99.90
45409;DHT22;31162;51.076;3.784;2022-08-23T00:42:03;20.90;99.90
45409;DHT22;31162;51.076;3.784;2022-08-23T00:44:50;20.80;99.90
45409;DHT22;31162;51.076;3.784;2022-08-23T00:47:34;20.70;99.90
45409;DHT22;31162;51.076;3.784;2022-08-23T00:52:49;20.10;99.90
45409;DHT22;31162;51.076;3.784;2022-08-23T00:55:16;20.20;99.90
45409;DHT22;31162;51.076;3.784;2022-08-23T00:57:42;20.20;99.90
45409;DHT22;31162;51.076;3.784;2022-08-23T01:00:09;20.10;99.90
45409;DHT22;31162;51.076;3.784;2022-08-23T01:02:36;20.00;99.90
45409;DHT22;31162;51.076;3.784;2022-08-23T01:05:03;20.00;99.90
45409;DHT22;31162;51.076;3.784;2022-08-23T01:07:50;20.00;99.90
45409;DHT22;31162;51.076;3.784;2022-08-23T01:10:31;19.90;99.90
45409;DHT22;31162;51.076;3.784;2022-08-23T01:13:03;19.90;99.90
45409;DHT22;31162;51.076;3.784;2022-08-23T01:15:38;19.80;99.90
45409;DHT22;31162;51.076;3.784;2022-08-23T01:18:07;19.80;99.90
45409;DHT22;31162;51.076;3.784;2022-08-23T01:20:43;19.70;99.90
45409;DHT22;31162;51.076;3.784;2022-08-23T01:25:56;19.70;99.90
45409;DHT22;31162;51.076;3.784;2022-08-23T01:28:22;19.70;99.90
45409;DHT22;31162;51.076;3.784;2022-08-23T01:30:48;19.60;99.90
45409;DHT22;31162;51.076;3.784;2022-08-23T01:33:14;19.60;99.90
45409;DHT22;31162;51.076;3.784;2022-08-23T01:35:44;19.60;99.90
45409;DHT22;31162;51.076;3.784;2022-08-23T01:38:11;19.70;99.90
45409;DHT22;31162;51.076;3.784;2022-08-23T01:40:38;19.70;99.90
45409;DHT22;31162;51.076;3.784;2022-08-23T01:43:05;19.70;99.90
45409;DHT22;31162;51.076;3.784;2022-08-23T01:45:35;19.70;99.90
45409;DHT22;31162;51.076;3.784;2022-08-23T01:48:02;19.70;99.90
45409;DHT22;31162;51.076;3.784;2022-08-23T01:50:28;19.60;99.90
45409;DHT22;31162;51.076;3.784;2022-08-23T01:52:57;19.40;99.90
45409;DHT22;31162;51.076;3.784;2022-08-23T01:55:23;19.30;99.90
45409;DHT22;31162;51.076;3.784;2022-08-23T01:57:52;19.20;99.90
45409;DHT22;31162;51.076;3.784;2022-08-23T02:00:21;19.20;99.90
45409;DHT22;31162;51.076;3.784;2022-08-23T02:02:47;19.20;99.90
45409;DHT22;31162;51.076;3.784;2022-08-23T02:05:13;19.20;99.90
45409;DHT22;31162;51.076;3.784;2022-08-23T02:07:39;19.30;99.90
45409;DHT22;31162;51.076;3.784;2022-08-23T02:10:07;19.30;99.90
45409;DHT22;31162;51.076;3.784;2022-08-23T02:12:34;19.30;99.90
45409;DHT22;31162;51.076;3.784;2022-08-23T02:14:59;19.20;99.90
45409;DHT22;31162;51.076;3.784;2022-08-23T02:17:25;19.20;99.90
45409;DHT22;31162;51.076;3.784;2022-08-23T02:19:51;19.00;99.90
45409;DHT22;31162;51.076;3.784;2022-08-23T02:22:17;19.00;99.90
45409;DHT22;31162;51.076;3.784;2022-08-23T02:24:45;19.00;99.90
45409;DHT22;31162;51.076;3.784;2022-08-23T02:27:11;19.00;99.90
45409;DHT22;31162;51.076;3.784;2022-08-23T02:29:40;18.90;99.90
45409;DHT22;31162;51.076;3.784;2022-08-23T02:32:07;18.80;99.90
45409;DHT22;31162;51.076;3.784;2022-08-23T02:34:33;18.80;99.90
45409;DHT22;31162;51.076;3.784;2022-08-23T02:37:00;18.70;99.90
45409;DHT22;31162;51.076;3.784;2022-08-23T02:39:26;18.70;99.90
45409;DHT22;31162;51.076;3.784;2022-08-23T02:41:52;18.70;99.90
45409;DHT22;31162;51.076;3.784;2022-08-23T02:44:18;18.60;99.90
45409;DHT22;31162;51.076;3.784;2022-08-23T02:46:44;18.60;99.90
45409;DHT22;31162;51.076;3.784;2022-08-23T02:49:10;18.70;99.90
45409;DHT22;31162;51.076;3.784;2022-08-23T02:51:37;18.60;99.90
45409;DHT22;31162;51.076;3.784;2022-08-23T02:54:03;18.50;99.90
45409;DHT22;31162;51.076;3.784;2022-08-23T02:56:29;18.40;99.90
45409;DHT22;31162;51.076;3.784;2022-08-23T02:58:55;18.30;99.90
45409;DHT22;31162;51.076;3.784;2022-08-23T03:01:27;18.30;99.90
45409;DHT22;31162;51.076;3.784;2022-08-23T03:03:54;18.40;99.90
45409;DHT22;31162;51.076;3.784;2022-08-23T03:06:20;18.40;99.90
45409;DHT22;31162;51.076;3.784;2022-08-23T03:08:47;18.50;99.90
45409;DHT22;31162;51.076;3.784;2022-08-23T03:11:15;18.50;99.90
45409;DHT22;31162;51.076;3.784;2022-08-23T03:13:42;18.60;99.90
45409;DHT22;31162;51.076;3.784;2022-08-23T03:16:14;18.70;99.90
45409;DHT22;31162;51.076;3.784;2022-08-23T03:18:40;18.50;99.90
45409;DHT22;31162;51.076;3.784;2022-08-23T03:21:07;18.30;99.90
45409;DHT22;31162;51.076;3.784;2022-08-23T03:23:35;18.40;99.90
45409;DHT22;31162;51.076;3.784;2022-08-23T03:26:02;18.40;99.90
45409;DHT22;31162;51.076;3.784;2022-08-23T03:28:28;18.40;99.90
45409;DHT22;31162;51.076;3.784;2022-08-23T03:30:55;18.40;99.90
45409;DHT22;31162;51.076;3.784;2022-08-23T03:33:21;18.40;99.90
45409;DHT22;31162;51.076;3.784;2022-08-23T03:35:48;18.40;99.90
45409;DHT22;31162;51.076;3.784;2022-08-23T03:38:16;18.30;99.90
45409;DHT22;31162;51.076;3.784;2022-08-23T03:40:42;18.40;99.90
45409;DHT22;31162;51.076;3.784;2022-08-23T03:43:08;18.40;99.90
45409;DHT22;31162;51.076;3.784;2022-08-23T03:45:34;18.30;99.90
45409;DHT22;31162;51.076;3.784;2022-08-23T03:48:00;18.30;99.90
45409;DHT22;31162;51.076;3.784;2022-08-23T03:50:26;18.30;99.90
45409;DHT22;31162;51.076;3.784;2022-08-23T03:52:52;18.30;99.90
45409;DHT22;31162;51.076;3.784;2022-08-23T03:55:18;18.30;99.90
45409;DHT22;31162;51.076;3.784;2022-08-23T03:57:44;18.40;99.90
45409;DHT22;31162;51.076;3.784;2022-08-23T04:00:11;18.40;99.90
45409;DHT22;31162;51.076;3.784;2022-08-23T04:02:37;18.50;99.90
45409;DHT22;31162;51.076;3.784;2022-08-23T04:05:05;18.70;99.90
45409;DHT22;31162;51.076;3.784;2022-08-23T04:07:30;18.80;99.90
45409;DHT22;31162;51.076;3.784;2022-08-23T04:09:56;18.80;99.90
45409;DHT22;31162;51.076;3.784;2022-08-23T04:12:22;18.80;99.90
45409;DHT22;31162;51.076;3.784;2022-08-23T04:14:50;18.90;99.90
45409;DHT22;31162;51.076;3.784;2022-08-23T04:17:16;19.00;99.90
45409;DHT22;31162;51.076;3.784;2022-08-23T04:19:42;19.00;99.90
45409;DHT22;31162;51.076;3.784;2022-08-23T04:22:12;19.00;99.90
45409;DHT22;31162;51.076;3.784;2022-08-23T04:24:40;18.90;99.90
45409;DHT22;31162;51.076;3.784;2022-08-23T04:27:06;18.90;99.90
45409;DHT22;31162;51.076;3.784;2022-08-23T04:29:32;19.00;99.90
45409;DHT22;31162;51.076;3.784;2022-08-23T04:31:57;18.90;99.90
45409;DHT22;31162;51.076;3.784;2022-08-23T04:34:24;19.00;99.90
45409;DHT22;31162;51.076;3.784;2022-08-23T04:36:52;19.00;99.90
45409;DHT22;31162;51.076;3.784;2022-08-23T04:39:19;19.10;99.90
45409;DHT22;31162;51.076;3.784;2022-08-23T04:41:44;19.20;99.90
45409;DHT22;31162;51.076;3.784;2022-08-23T04:44:29;19.30;99.90
45409;DHT22;31162;51.076;3.784;2022-08-23T04:46:54;19.30;99.90
45409;DHT22;31162;51.076;3.784;2022-08-23T04:49:20;19.20;99.90
45409;DHT22;31162;51.076;3.784;2022-08-23T04:51:48;19.10;99.90
45409;DHT22;31162;51.076;3.784;2022-08-23T04:54:14;18.90;99.90
45409;DHT22;31162;51.076;3.784;2022-08-23T04:56:40;18.80;99.90
45409;DHT22;31162;51.076;3.784;2022-08-23T04:59:05;18.80;99.90
45409;DHT22;31162;51.076;3.784;2022-08-23T05:01:31;18.90;99.90
45409;DHT22;31162;51.076;3.784;2022-08-23T05:03:57;18.90;99.90
45409;DHT22;31162;51.076;3.784;2022-08-23T05:06:24;18.90;99.90
45409;DHT22;31162;51.076;3.784;2022-08-23T05:08:50;18.80;99.90
45409;DHT22;31162;51.076;3.784;2022-08-23T05:11:16;18.60;99.90
45409;DHT22;31162;51.076;3.784;2022-08-23T05:13:43;18.50;99.90
45409;DHT22;31162;51.076;3.784;2022-08-23T05:16:09;18.50;99.90
45409;DHT22;31162;51.076;3.784;2022-08-23T05:18:35;18.50;99.90
45409;DHT22;31162;51.076;3.784;2022-08-23T05:21:00;18.50;99.90
45409;DHT22;31162;51.076;3.784;2022-08-23T05:23:27;18.60;99.90
45409;DHT22;31162;51.076;3.784;2022-08-23T05:25:53;18.60;99.90
45409;DHT22;31162;51.076;3.784;2022-08-23T05:28:24;18.70;99.90
45409;DHT22;31162;51.076;3.784;2022-08-23T05:30:56;18.70;99.90
45409;DHT22;31162;51.076;3.784;2022-08-23T05:33:22;18.90;99.90
45409;DHT22;31162;51.076;3.784;2022-08-23T05:35:49;18.90;99.90
45409;DHT22;31162;51.076;3.784;2022-08-23T05:38:15;19.00;99.90
45409;DHT22;31162;51.076;3.784;2022-08-23T05:40:41;19.00;99.90
45409;DHT22;31162;51.076;3.784;2022-08-23T05:43:06;19.10;99.90
45409;DHT22;31162;51.076;3.784;2022-08-23T05:45:32;19.10;99.90
45409;DHT22;31162;51.076;3.784;2022-08-23T05:47:57;19.10;99.90
45409;DHT22;31162;51.076;3.784;2022-08-23T05:50:23;19.20;99.90
45409;DHT22;31162;51.076;3.784;2022-08-23T05:52:49;19.30;99.90
45409;DHT22;31162;51.076;3.784;2022-08-23T05:55:15;19.40;99.90
45409;DHT22;31162;51.076;3.784;2022-08-23T05:57:43;19.50;99.90
45409;DHT22;31162;51.076;3.784;2022-08-23T06:00:09;19.80;99.90
45409;DHT22;31162;51.076;3.784;2022-08-23T06:02:40;19.90;99.90
45409;DHT22;31162;51.076;3.784;2022-08-23T06:05:08;20.10;99.90
45409;DHT22;31162;51.076;3.784;2022-08-23T06:07:34;21.30;99.90
45409;DHT22;31162;51.076;3.784;2022-08-23T06:10:00;22.00;99.90
45409;DHT22;31162;51.076;3.784;2022-08-23T06:12:26;22.10;99.90
45409;DHT22;31162;51.076;3.784;2022-08-23T06:14:52;24.00;99.90
45409;DHT22;31162;51.076;3.784;2022-08-23T06:17:18;26.70;99.90
45409;DHT22;31162;51.076;3.784;2022-08-23T06:19:43;28.90;99.90
45409;DHT22;31162;51.076;3.784;2022-08-23T06:22:09;30.10;99.90
45409;DHT22;31162;51.076;3.784;2022-08-23T06:24:35;30.10;99.90
45409;DHT22;31162;51.076;3.784;2022-08-23T06:27:01;29.10;99.90
45409;DHT22;31162;51.076;3.784;2022-08-23T06:29:28;27.80;99.90
45409;DHT22;31162;51.076;3.784;2022-08-23T06:31:54;27.50;99.90
45409;DHT22;31162;51.076;3.784;2022-08-23T06:36:48;31.70;99.90
45409;DHT22;31162;51.076;3.784;2022-08-23T06:39:15;33.60;96.90
45409;DHT22;31162;51.076;3.784;2022-08-23T06:41:41;35.10;93.70
45409;DHT22;31162;51.076;3.784;2022-08-23T06:44:07;35.90;91.80
45409;DHT22;31162;51.076;3.784;2022-08-23T06:46:34;36.60;90.10
45409;DHT22;31162;51.076;3.784;2022-08-23T06:49:04;37.20;87.80
45409;DHT22;31162;51.076;3.784;2022-08-23T06:51:33;37.70;84.50
45409;DHT22;31162;51.076;3.784;2022-08-23T06:54:01;37.90;84.50
45409;DHT22;31162;51.076;3.784;2022-08-23T06:56:28;38.30;83.00
45409;DHT22;31162;51.076;3.784;2022-08-23T06:58:54;38.30;81.40
45409;DHT22;31162;51.076;3.784;2022-08-23T07:01:33;38.40;80.40
45409;DHT22;31162;51.076;3.784;2022-08-23T07:04:02;38.20;81.20
45409;DHT22;31162;51.076;3.784;2022-08-23T07:06:28;38.00;79.80
45409;DHT22;31162;51.076;3.784;2022-08-23T07:08:55;37.40;79.70
45409;DHT22;31162;51.076;3.784;2022-08-23T07:11:21;37.30;79.10
45409;DHT22;31162;51.076;3.784;2022-08-23T07:13:48;38.20;78.60
45409;DHT22;31162;51.076;3.784;2022-08-23T07:16:15;38.40;77.40
45409;DHT22;31162;51.076;3.784;2022-08-23T07:18:43;38.60;76.90
45409;DHT22;31162;51.076;3.784;2022-08-23T07:21:10;37.80;77.60
45409;DHT22;31162;51.076;3.784;2022-08-23T07:23:38;38.20;77.00
45409;DHT22;31162;51.076;3.784;2022-08-23T07:26:09;38.80;76.40
45409;DHT22;31162;51.076;3.784;2022-08-23T07:28:36;39.20;75.20
45409;DHT22;31162;51.076;3.784;2022-08-23T07:33:36;39.70;73.70
45409;DHT22;31162;51.076;3.784;2022-08-23T07:36:03;39.60;74.50
45409;DHT22;31162;51.076;3.784;2022-08-23T07:38:29;40.00;73.40
45409;DHT22;31162;51.076;3.784;2022-08-23T07:40:55;41.00;73.00
45409;DHT22;31162;51.076;3.784;2022-08-23T07:43:21;41.60;72.20
45409;DHT22;31162;51.076;3.784;2022-08-23T07:45:47;42.20;70.70
45409;DHT22;31162;51.076;3.784;2022-08-23T07:48:14;42.50;70.00
45409;DHT22;31162;51.076;3.784;2022-08-23T07:50:40;42.00;69.30
45409;DHT22;31162;51.076;3.784;2022-08-23T07:53:08;41.80;69.50
45409;DHT22;31162;51.076;3.784;2022-08-23T07:55:34;42.00;69.40
45409;DHT22;31162;51.076;3.784;2022-08-23T07:58:03;42.00;69.20
45409;DHT22;31162;51.076;3.784;2022-08-23T08:00:29;42.30;68.70
45409;DHT22;31162;51.076;3.784;2022-08-23T08:02:56;42.80;68.60
45409;DHT22;31162;51.076;3.784;2022-08-23T08:05:23;42.70;67.60
45409;DHT22;31162;51.076;3.784;2022-08-23T08:07:49;42.30;67.40
45409;DHT22;31162;51.076;3.784;2022-08-23T08:10:14;42.40;68.00
45409;DHT22;31162;51.076;3.784;2022-08-23T08:12:40;42.60;67.10
45409;DHT22;31162;51.076;3.784;2022-08-23T08:15:06;42.70;67.20
45409;DHT22;31162;51.076;3.784;2022-08-23T08:17:32;43.20;66.20
45409;DHT22;31162;51.076;3.784;2022-08-23T08:19:58;43.20;66.20
45409;DHT22;31162;51.076;3.784;2022-08-23T08:22:23;42.50;65.40
45409;DHT22;31162;51.076;3.784;2022-08-23T08:24:49;42.30;66.80
45409;DHT22;31162;51.076;3.784;2022-08-23T08:27:14;43.20;65.90
45409;DHT22;31162;51.076;3.784;2022-08-23T08:29:40;42.90;65.90
45409;DHT22;31162;51.076;3.784;2022-08-23T08:32:08;42.00;66.20
45409;DHT22;31162;51.076;3.784;2022-08-23T08:34:34;41.20;66.80
45409;DHT22;31162;51.076;3.784;2022-08-23T08:37:00;40.20;68.00
45409;DHT22;31162;51.076;3.784;2022-08-23T08:39:29;40.60;67.90
45409;DHT22;31162;51.076;3.784;2022-08-23T08:42:08;41.00;67.30
45409;DHT22;31162;51.076;3.784;2022-08-23T08:45:04;42.20;67.80
45409;DHT22;31162;51.076;3.784;2022-08-23T08:47:47;42.40;66.10
45409;DHT22;31162;51.076;3.784;2022-08-23T08:50:24;42.10;66.60
45409;DHT22;31162;51.076;3.784;2022-08-23T08:53:11;43.30;66.10
45409;DHT22;31162;51.076;3.784;2022-08-23T08:55:46;44.70;64.80
45409;DHT22;31162;51.076;3.784;2022-08-23T08:58:25;45.90;63.50
45409;DHT22;31162;51.076;3.784;2022-08-23T09:00:53;46.10;62.10
45409;DHT22;31162;51.076;3.784;2022-08-23T09:03:20;46.40;61.90
45409;DHT22;31162;51.076;3.784;2022-08-23T09:05:59;46.90;61.50
45409;DHT22;31162;51.076;3.784;2022-08-23T09:08:33;47.10;60.80
45409;DHT22;31162;51.076;3.784;2022-08-23T09:11:19;47.60;60.80
45409;DHT22;31162;51.076;3.784;2022-08-23T09:14:18;45.80;60.70
45409;DHT22;31162;51.076;3.784;2022-08-23T09:16:53;45.10;61.80
45409;DHT22;31162;51.076;3.784;2022-08-23T09:19:23;45.50;60.70
45409;DHT22;31162;51.076;3.784;2022-08-23T09:22:03;45.50;61.20
45409;DHT22;31162;51.076;3.784;2022-08-23T09:24:30;45.60;61.00
45409;DHT22;31162;51.076;3.784;2022-08-23T09:26:56;45.60;60.50
45409;DHT22;31162;51.076;3.784;2022-08-23T09:29:29;46.00;60.70
45409;DHT22;31162;51.076;3.784;2022-08-23T09:31:58;45.60;60.30
45409;DHT22;31162;51.076;3.784;2022-08-23T09:39:46;44.60;61.80
45409;DHT22;31162;51.076;3.784;2022-08-23T09:44:56;45.80;61.30
45409;DHT22;31162;51.076;3.784;2022-08-23T09:47:34;46.40;60.30
45409;DHT22;31162;51.076;3.784;2022-08-23T09:50:25;46.20;60.50
45409;DHT22;31162;51.076;3.784;2022-08-23T09:53:13;44.30;61.70
45409;DHT22;31162;51.076;3.784;2022-08-23T09:55:43;41.70;63.90
45409;DHT22;31162;51.076;3.784;2022-08-23T09:58:19;39.50;66.20
45409;DHT22;31162;51.076;3.784;2022-08-23T10:01:17;37.70;68.20
45409;DHT22;31162;51.076;3.784;2022-08-23T10:03:43;36.10;70.50
45409;DHT22;31162;51.076;3.784;2022-08-23T10:06:11;35.90;71.30
45409;DHT22;31162;51.076;3.784;2022-08-23T10:08:51;35.70;71.40
45409;DHT22;31162;51.076;3.784;2022-08-23T10:11:28;35.60;71.90
45409;DHT22;31162;51.076;3.784;2022-08-23T10:13:54;35.90;72.40
45409;DHT22;31162;51.076;3.784;2022-08-23T10:16:40;35.90;72.20
45409;DHT22;31162;51.076;3.784;2022-08-23T10:22:09;38.40;69.10
45409;DHT22;31162;51.076;3.784;2022-08-23T10:30:22;35.90;72.50
45409;DHT22;31162;51.076;3.784;2022-08-23T10:33:19;35.10;74.10
45409;DHT22;31162;51.076;3.784;2022-08-23T10:36:05;34.70;74.80
45409;DHT22;31162;51.076;3.784;2022-08-23T10:39:05;35.00;74.60
45409;DHT22;31162;51.076;3.784;2022-08-23T10:44:41;36.70;71.30
45409;DHT22;31162;51.076;3.784;2022-08-23T10:47:36;38.00;71.50
45409;DHT22;31162;51.076;3.784;2022-08-23T10:50:09;40.00;68.30
45409;DHT22;31162;51.076;3.784;2022-08-23T10:52:42;40.90;66.90
45409;DHT22;31162;51.076;3.784;2022-08-23T10:55:19;39.80;67.10
45409;DHT22;31162;51.076;3.784;2022-08-23T10:58:02;37.70;70.00
45409;DHT22;31162;51.076;3.784;2022-08-23T11:00:30;36.50;71.40
45409;DHT22;31162;51.076;3.784;2022-08-23T11:09:01;38.60;70.00
45409;DHT22;31162;51.076;3.784;2022-08-23T11:16:57;40.90;67.10
45409;DHT22;31162;51.076;3.784;2022-08-23T11:22:26;38.80;69.90
45409;DHT22;31162;51.076;3.784;2022-08-23T11:27:40;37.10;71.90
45409;DHT22;31162;51.076;3.784;2022-08-23T11:30:37;37.30;71.40
45409;DHT22;31162;51.076;3.784;2022-08-23T11:33:24;37.90;70.80
45409;DHT22;31162;51.076;3.784;2022-08-23T11:35:52;37.00;72.00
45409;DHT22;31162;51.076;3.784;2022-08-23T11:43:46;34.70;74.70
45409;DHT22;31162;51.076;3.784;2022-08-23T11:49:10;35.50;75.00
45409;DHT22;31162;51.076;3.784;2022-08-23T11:54:29;37.70;71.50
45409;DHT22;31162;51.076;3.784;2022-08-23T12:03:03;36.90;71.50
45409;DHT22;31162;51.076;3.784;2022-08-23T12:21:38;36.60;72.70
45409;DHT22;31162;51.076;3.784;2022-08-23T12:24:21;35.60;74.10
45409;DHT22;31162;51.076;3.784;2022-08-23T12:27:23;35.00;75.80
45409;DHT22;31162;51.076;3.784;2022-08-23T12:32:33;34.40;75.80
45409;DHT22;31162;51.076;3.784;2022-08-23T12:35:34;34.00;76.30
45409;DHT22;31162;51.076;3.784;2022-08-23T12:38:16;34.10;77.00
45409;DHT22;31162;51.076;3.784;2022-08-23T12:40:47;34.40;77.10
45409;DHT22;31162;51.076;3.784;2022-08-23T12:43:32;34.30;76.40
45409;DHT22;31162;51.076;3.784;2022-08-23T12:46:01;34.00;76.30
45409;DHT22;31162;51.076;3.784;2022-08-23T12:48:29;34.10;76.80
45409;DHT22;31162;51.076;3.784;2022-08-23T12:51:05;34.30;76.10
45409;DHT22;31162;51.076;3.784;2022-08-23T12:53:40;34.50;76.40
45409;DHT22;31162;51.076;3.784;2022-08-23T12:56:18;34.40;73.90
45409;DHT22;31162;51.076;3.784;2022-08-23T12:59:00;33.90;74.70
45409;DHT22;31162;51.076;3.784;2022-08-23T13:01:34;33.60;75.10
45409;DHT22;31162;51.076;3.784;2022-08-23T13:04:07;33.50;75.60
45409;DHT22;31162;51.076;3.784;2022-08-23T13:06:48;33.40;77.00
45409;DHT22;31162;51.076;3.784;2022-08-23T13:09:25;33.00;76.80
45409;DHT22;31162;51.076;3.784;2022-08-23T13:11:55;32.90;76.70
45409;DHT22;31162;51.076;3.784;2022-08-23T13:14:35;33.00;77.20
45409;DHT22;31162;51.076;3.784;2022-08-23T13:20:12;33.00;75.60
45409;DHT22;31162;51.076;3.784;2022-08-23T13:22:56;32.40;76.50
45409;DHT22;31162;51.076;3.784;2022-08-23T13:25:34;32.50;77.20
45409;DHT22;31162;51.076;3.784;2022-08-23T13:28:07;32.60;76.40
45409;DHT22;31162;51.076;3.784;2022-08-23T13:31:00;32.20;76.00
45409;DHT22;31162;51.076;3.784;2022-08-23T13:33:26;32.10;77.30
45409;DHT22;31162;51.076;3.784;2022-08-23T13:36:14;32.40;76.40
45409;DHT22;31162;51.076;3.784;2022-08-23T13:38:42;32.80;75.30
45409;DHT22;31162;51.076;3.784;2022-08-23T13:41:33;32.90;74.50
45409;DHT22;31162;51.076;3.784;2022-08-23T13:44:07;32.80;75.90
45409;DHT22;31162;51.076;3.784;2022-08-23T13:46:33;32.40;75.90
45409;DHT22;31162;51.076;3.784;2022-08-23T13:49:03;32.00;75.60
45409;DHT22;31162;51.076;3.784;2022-08-23T13:51:36;31.80;76.60
45409;DHT22;31162;51.076;3.784;2022-08-23T13:54:13;31.70;77.70
45409;DHT22;31162;51.076;3.784;2022-08-23T13:56:53;31.60;77.40
45409;DHT22;31162;51.076;3.784;2022-08-23T13:59:24;31.60;76.50
45409;DHT22;31162;51.076;3.784;2022-08-23T14:01:50;31.80;76.30
45409;DHT22;31162;51.076;3.784;2022-08-23T14:04:16;31.80;77.10
45409;DHT22;31162;51.076;3.784;2022-08-23T14:06:42;31.80;77.20
45409;DHT22;31162;51.076;3.784;2022-08-23T14:09:07;31.70;77.00
45409;DHT22;31162;51.076;3.784;2022-08-23T14:11:33;31.30;77.60
45409;DHT22;31162;51.076;3.784;2022-08-23T14:13:59;31.30;76.90
45409;DHT22;31162;51.076;3.784;2022-08-23T14:16:28;31.40;77.40
45409;DHT22;31162;51.076;3.784;2022-08-23T14:18:55;31.50;75.80
45409;DHT22;31162;51.076;3.784;2022-08-23T14:21:21;31.50;76.50
45409;DHT22;31162;51.076;3.784;2022-08-23T14:23:47;31.70;76.80
45409;DHT22;31162;51.076;3.784;2022-08-23T14:26:15;31.80;76.50
45409;DHT22;31162;51.076;3.784;2022-08-23T14:28:42;31.80;77.00
45409;DHT22;31162;51.076;3.784;2022-08-23T14:31:09;32.00;75.90
45409;DHT22;31162;51.076;3.784;2022-08-23T14:33:35;32.20;76.10
45409;DHT22;31162;51.076;3.784;2022-08-23T14:36:01;32.00;76.80
45409;DHT22;31162;51.076;3.784;2022-08-23T14:38:26;31.90;76.00
45409;DHT22;31162;51.076;3.784;2022-08-23T14:40:55;31.70;77.10
45409;DHT22;31162;51.076;3.784;2022-08-23T14:43:22;31.30;76.40
45409;DHT22;31162;51.076;3.784;2022-08-23T14:45:48;31.10;77.30
45409;DHT22;31162;51.076;3.784;2022-08-23T14:48:15;31.10;78.70
45409;DHT22;31162;51.076;3.784;2022-08-23T14:50:42;31.40;77.10
45409;DHT22;31162;51.076;3.784;2022-08-23T14:53:09;31.70;77.10
45409;DHT22;31162;51.076;3.784;2022-08-23T14:55:35;32.00;76.30
45409;DHT22;31162;51.076;3.784;2022-08-23T14:58:01;31.70;77.10
45409;DHT22;31162;51.076;3.784;2022-08-23T15:00:29;31.50;77.00
45409;DHT22;31162;51.076;3.784;2022-08-23T15:02:55;31.40;77.80
45409;DHT22;31162;51.076;3.784;2022-08-23T15:05:21;31.40;77.20
45409;DHT22;31162;51.076;3.784;2022-08-23T15:07:46;31.40;78.10
45409;DHT22;31162;51.076;3.784;2022-08-23T15:10:15;31.40;77.40
45409;DHT22;31162;51.076;3.784;2022-08-23T15:12:41;31.50;77.00
45409;DHT22;31162;51.076;3.784;2022-08-23T15:15:13;31.40;76.30
45409;DHT22;31162;51.076;3.784;2022-08-23T15:17:49;31.40;75.50
45409;DHT22;31162;51.076;3.784;2022-08-23T15:20:18;31.40;76.10
45409;DHT22;31162;51.076;3.784;2022-08-23T15:22:44;31.40;76.60
45409;DHT22;31162;51.076;3.784;2022-08-23T15:25:10;31.50;76.50
45409;DHT22;31162;51.076;3.784;2022-08-23T15:27:35;31.50;76.70
45409;DHT22;31162;51.076;3.784;2022-08-23T15:30:02;31.40;76.50
45409;DHT22;31162;51.076;3.784;2022-08-23T15:32:28;31.50;77.20
45409;DHT22;31162;51.076;3.784;2022-08-23T15:34:54;31.60;76.60
45409;DHT22;31162;51.076;3.784;2022-08-23T15:37:20;31.70;76.10
45409;DHT22;31162;51.076;3.784;2022-08-23T15:39:47;31.50;75.90
45409;DHT22;31162;51.076;3.784;2022-08-23T15:42:13;31.40;76.20
45409;DHT22;31162;51.076;3.784;2022-08-23T15:44:38;31.00;76.30
45409;DHT22;31162;51.076;3.784;2022-08-23T15:47:13;31.10;77.60
45409;DHT22;31162;51.076;3.784;2022-08-23T15:49:42;31.30;76.40
45409;DHT22;31162;51.076;3.784;2022-08-23T15:52:07;31.40;76.80
45409;DHT22;31162;51.076;3.784;2022-08-23T15:54:33;31.40;76.20
45409;DHT22;31162;51.076;3.784;2022-08-23T15:56:59;31.40;76.00
45409;DHT22;31162;51.076;3.784;2022-08-23T15:59:24;31.20;76.50
45409;DHT22;31162;51.076;3.784;2022-08-23T16:01:50;31.00;76.60
45409;DHT22;31162;51.076;3.784;2022-08-23T16:04:16;30.90;76.60
45409;DHT22;31162;51.076;3.784;2022-08-23T16:06:43;31.00;76.80
45409;DHT22;31162;51.076;3.784;2022-08-23T16:09:16;31.10;76.50
45409;DHT22;31162;51.076;3.784;2022-08-23T16:11:43;31.20;77.40
45409;DHT22;31162;51.076;3.784;2022-08-23T16:14:09;31.20;76.90
45409;DHT22;31162;51.076;3.784;2022-08-23T16:16:38;31.30;77.10
45409;DHT22;31162;51.076;3.784;2022-08-23T16:19:05;31.30;76.70
45409;DHT22;31162;51.076;3.784;2022-08-23T16:21:31;31.20;75.60
45409;DHT22;31162;51.076;3.784;2022-08-23T16:23:58;31.10;75.90
45409;DHT22;31162;51.076;3.784;2022-08-23T16:26:29;31.00;76.70
45409;DHT22;31162;51.076;3.784;2022-08-23T16:28:57;30.80;76.80
45409;DHT22;31162;51.076;3.784;2022-08-23T16:31:24;30.50;76.90
45409;DHT22;31162;51.076;3.784;2022-08-23T16:33:58;30.50;77.20
45409;DHT22;31162;51.076;3.784;2022-08-23T16:36:26;30.40;78.20
45409;DHT22;31162;51.076;3.784;2022-08-23T16:38:52;30.50;77.60
45409;DHT22;31162;51.076;3.784;2022-08-23T16:41:21;30.60;77.70
45409;DHT22;31162;51.076;3.784;2022-08-23T16:43:48;30.70;77.80
45409;DHT22;31162;51.076;3.784;2022-08-23T16:46:15;30.70;78.60
45409;DHT22;31162;51.076;3.784;2022-08-23T16:48:44;30.80;78.20
45409;DHT22;31162;51.076;3.784;2022-08-23T16:51:10;30.70;77.80
45409;DHT22;31162;51.076;3.784;2022-08-23T16:53:37;30.60;78.20
45409;DHT22;31162;51.076;3.784;2022-08-23T16:56:04;30.40;78.20
45409;DHT22;31162;51.076;3.784;2022-08-23T16:58:30;30.20;77.80
45409;DHT22;31162;51.076;3.784;2022-08-23T17:00:56;30.10;78.10
45409;DHT22;31162;51.076;3.784;2022-08-23T17:03:21;30.00;79.20
45409;DHT22;31162;51.076;3.784;2022-08-23T17:05:48;29.90;79.40
45409;DHT22;31162;51.076;3.784;2022-08-23T17:08:14;29.70;79.90
45409;DHT22;31162;51.076;3.784;2022-08-23T17:10:40;29.60;80.20
45409;DHT22;31162;51.076;3.784;2022-08-23T17:13:07;29.50;80.40